createdAt,value
2022-12-25T00:01:58.118Z,8.20
2022-12-25T00:04:24.834Z,8.20
2022-12-25T00:06:51.533Z,8.30
2022-12-25T00:09:18.202Z,8.40
2022-12-25T00:11:44.925Z,8.50
2022-12-25T00:14:11.592Z,8.50
2022-12-25T00:16:38.299Z,8.40
2022-12-25T00:19:04.946Z,8.30
2022-12-25T00:21:31.638Z,8.10
2022-12-25T00:23:58.264Z,8.20
2022-12-25T00:26:25.115Z,8.20
2022-12-25T00:28:51.755Z,8.30
2022-12-25T00:31:18.441Z,8.40
2022-12-25T00:33:45.206Z,8.40
2022-12-25T00:36:12.117Z,8.40
2022-12-25T00:38:38.749Z,7.80
2022-12-25T00:41:05.771Z,8.00
2022-12-25T00:43:32.471Z,8.00
2022-12-25T00:45:59.185Z,8.20
2022-12-25T00:48:25.866Z,8.40
2022-12-25T00:50:52.639Z,8.20
2022-12-25T00:53:19.337Z,8.40
2022-12-25T00:55:45.978Z,8.40
2022-12-25T00:58:12.689Z,8.50
2022-12-25T01:00:39.563Z,8.50
2022-12-25T01:03:06.479Z,8.40
2022-12-25T01:05:33.241Z,8.40
2022-12-25T01:07:59.942Z,8.10
2022-12-25T01:10:26.860Z,8.20
2022-12-25T01:12:53.503Z,7.90
2022-12-25T01:15:20.185Z,7.70
2022-12-25T01:17:46.875Z,7.10
2022-12-25T01:20:13.539Z,7.30
2022-12-25T01:22:40.147Z,7.60
2022-12-25T01:25:06.974Z,7.90
2022-12-25T01:27:33.616Z,8.10
2022-12-25T01:30:00.328Z,8.10
2022-12-25T01:32:27.027Z,8.10
2022-12-25T01:34:56.026Z,7.90
2022-12-25T01:37:23.112Z,7.90
2022-12-25T01:39:49.799Z,7.90
2022-12-25T01:42:16.454Z,8.00
2022-12-25T01:44:43.143Z,7.80
2022-12-25T01:47:09.991Z,8.00
2022-12-25T01:49:36.628Z,8.10
2022-12-25T01:52:03.263Z,8.10
2022-12-25T01:54:29.972Z,8.20
2022-12-25T01:56:56.656Z,8.40
2022-12-25T01:59:23.305Z,8.40
2022-12-25T02:01:50.026Z,8.20
2022-12-25T02:04:16.784Z,8.20
2022-12-25T02:06:43.399Z,8.00
2022-12-25T02:09:10.224Z,7.90
2022-12-25T02:11:36.871Z,7.90
2022-12-25T02:14:03.477Z,8.20
2022-12-25T02:16:30.214Z,8.30
2022-12-25T02:18:57.072Z,8.20
2022-12-25T02:21:24.037Z,8.20
2022-12-25T02:23:50.654Z,8.20
2022-12-25T02:26:17.271Z,8.00
2022-12-25T02:28:45.976Z,8.00
2022-12-25T02:31:12.903Z,8.10
2022-12-25T02:33:39.610Z,8.10
2022-12-25T02:36:06.514Z,8.30
2022-12-25T02:38:33.186Z,8.30
2022-12-25T02:40:59.897Z,8.10
2022-12-25T02:43:26.689Z,8.40
2022-12-25T02:45:53.396Z,8.20
2022-12-25T02:48:20.083Z,8.30
2022-12-25T02:50:46.779Z,8.20
2022-12-25T02:53:13.441Z,8.10
2022-12-25T02:55:40.338Z,7.90
2022-12-25T02:58:07.034Z,7.90
2022-12-25T03:00:33.741Z,8.20
2022-12-25T03:03:00.487Z,8.30
2022-12-25T03:05:27.381Z,8.30
2022-12-25T03:07:54.230Z,8.00
2022-12-25T03:10:20.913Z,8.10
2022-12-25T03:12:47.653Z,8.00
2022-12-25T03:15:14.352Z,8.00
2022-12-25T03:17:41.012Z,8.10
2022-12-25T03:20:07.652Z,8.00
2022-12-25T03:22:34.545Z,8.00
2022-12-25T03:25:01.211Z,8.10
2022-12-25T03:27:27.882Z,8.00
2022-12-25T03:29:54.776Z,8.10
2022-12-25T03:32:21.436Z,8.10
2022-12-25T03:34:48.099Z,7.80
2022-12-25T03:37:14.709Z,7.60
2022-12-25T03:39:41.561Z,7.80
2022-12-25T03:42:08.269Z,7.80
2022-12-25T03:44:34.893Z,7.40
2022-12-25T03:47:01.555Z,7.50
2022-12-25T03:49:28.267Z,7.60
2022-12-25T03:51:54.884Z,7.60
2022-12-25T03:54:21.567Z,7.70
2022-12-25T03:56:48.211Z,7.60
2022-12-25T03:59:19.475Z,7.40
2022-12-25T04:01:50.271Z,7.40
2022-12-25T04:04:17.014Z,7.40
2022-12-25T04:06:43.671Z,7.40
2022-12-25T04:09:10.339Z,7.40
2022-12-25T04:11:37.132Z,7.20
2022-12-25T04:14:03.768Z,7.20
2022-12-25T04:16:30.435Z,7.20
2022-12-25T04:18:57.105Z,7.10
2022-12-25T04:21:23.745Z,7.00
2022-12-25T04:23:50.429Z,7.20
2022-12-25T04:26:17.341Z,7.20
2022-12-25T04:28:44.030Z,7.30
2022-12-25T04:31:10.702Z,7.10
2022-12-25T04:33:37.435Z,7.00
2022-12-25T04:36:04.085Z,7.10
2022-12-25T04:38:30.751Z,6.90
2022-12-25T04:40:57.368Z,6.80
2022-12-25T04:43:23.998Z,6.90
2022-12-25T04:45:50.619Z,7.00
2022-12-25T04:48:17.297Z,7.20
2022-12-25T04:50:44.034Z,7.00
2022-12-25T04:53:10.673Z,6.40
2022-12-25T04:55:37.355Z,6.40
2022-12-25T04:58:04.043Z,6.60
2022-12-25T05:00:30.667Z,6.80
2022-12-25T05:02:57.500Z,6.90
2022-12-25T05:05:24.314Z,7.00
2022-12-25T05:07:51.024Z,6.90
2022-12-25T05:10:17.703Z,6.00
2022-12-25T05:12:44.437Z,6.30
2022-12-25T05:15:11.090Z,6.40
2022-12-25T05:17:37.791Z,6.30
2022-12-25T05:20:04.465Z,6.50
2022-12-25T05:22:31.177Z,6.50
2022-12-25T05:24:57.882Z,6.60
2022-12-25T05:27:24.644Z,6.50
2022-12-25T05:29:51.303Z,6.40
2022-12-25T05:32:17.943Z,6.40
2022-12-25T05:34:44.576Z,6.20
2022-12-25T05:37:11.241Z,6.00
2022-12-25T05:39:38.187Z,6.00
2022-12-25T05:42:04.844Z,6.20
2022-12-25T05:44:31.589Z,6.30
2022-12-25T05:46:58.308Z,6.30
2022-12-25T05:49:25.062Z,6.30
2022-12-25T05:51:51.763Z,6.40
2022-12-25T05:54:18.411Z,6.20
2022-12-25T05:56:45.057Z,6.30
2022-12-25T05:59:11.847Z,6.20
2022-12-25T06:01:38.628Z,6.00
2022-12-25T06:04:10.325Z,5.70
2022-12-25T06:06:39.210Z,5.50
2022-12-25T06:09:06.094Z,5.60
2022-12-25T06:11:32.746Z,5.70
2022-12-25T06:13:59.350Z,5.80
2022-12-25T06:16:26.317Z,5.40
2022-12-25T06:18:53.175Z,5.50
2022-12-25T06:21:19.885Z,5.70
2022-12-25T06:23:46.729Z,5.30
2022-12-25T06:26:13.405Z,5.40
2022-12-25T06:28:40.037Z,5.50
2022-12-25T06:31:06.725Z,5.30
2022-12-25T06:33:33.433Z,5.20
2022-12-25T06:36:00.105Z,5.40
2022-12-25T06:38:27.263Z,5.10
2022-12-25T06:40:53.898Z,5.40
2022-12-25T06:43:20.752Z,5.50
2022-12-25T06:45:47.474Z,5.70
2022-12-25T06:48:14.157Z,5.70
2022-12-25T06:50:40.847Z,5.70
2022-12-25T06:53:07.554Z,5.80
2022-12-25T06:55:34.375Z,5.60
2022-12-25T06:58:01.078Z,5.60
2022-12-25T07:00:27.813Z,5.70
2022-12-25T07:02:54.646Z,5.90
2022-12-25T07:05:21.464Z,5.80
2022-12-25T07:07:48.165Z,5.20
2022-12-25T07:10:14.816Z,5.50
2022-12-25T07:12:41.469Z,5.50
2022-12-25T07:15:08.175Z,5.60
2022-12-25T07:17:34.816Z,5.50
2022-12-25T07:20:01.558Z,5.90
2022-12-25T07:22:28.205Z,6.10
2022-12-25T07:24:54.845Z,6.30
2022-12-25T07:27:21.498Z,6.30
2022-12-25T07:29:48.119Z,6.40
2022-12-25T07:32:14.773Z,6.50
2022-12-25T07:34:41.520Z,6.60
2022-12-25T07:37:08.164Z,6.30
2022-12-25T07:39:34.779Z,6.50
2022-12-25T07:42:01.479Z,6.70
2022-12-25T07:44:28.232Z,6.70
2022-12-25T07:46:54.880Z,6.50
2022-12-25T07:49:21.647Z,6.60
2022-12-25T07:51:48.323Z,6.70
2022-12-25T07:54:15.050Z,6.90
2022-12-25T07:56:41.692Z,7.10
2022-12-25T07:59:08.364Z,7.00
2022-12-25T08:01:35.195Z,6.90
2022-12-25T08:04:02.128Z,7.10
2022-12-25T08:06:28.947Z,7.20
2022-12-25T08:08:55.622Z,7.30
2022-12-25T08:11:22.240Z,7.20
2022-12-25T08:13:48.911Z,7.40
2022-12-25T08:16:15.652Z,7.30
2022-12-25T08:18:42.515Z,7.50
2022-12-25T08:21:09.324Z,7.60
2022-12-25T08:23:35.971Z,7.80
2022-12-25T08:26:05.578Z,7.80
2022-12-25T08:28:32.741Z,7.70
2022-12-25T08:30:59.486Z,7.70
2022-12-25T08:33:26.198Z,7.80
2022-12-25T08:35:52.841Z,8.00
2022-12-25T08:38:19.454Z,8.20
2022-12-25T08:40:46.158Z,8.40
2022-12-25T08:43:12.764Z,8.30
2022-12-25T08:45:39.451Z,8.50
2022-12-25T08:48:06.163Z,8.60
2022-12-25T08:50:32.809Z,8.60
2022-12-25T08:52:59.610Z,8.60
2022-12-25T08:55:26.345Z,8.60
2022-12-25T08:57:53.076Z,8.70
2022-12-25T09:00:19.714Z,8.80
2022-12-25T09:02:46.465Z,8.80
2022-12-25T09:05:13.153Z,8.80
2022-12-25T09:07:39.796Z,8.90
2022-12-25T09:10:06.574Z,9.10
2022-12-25T09:12:33.232Z,9.10
2022-12-25T09:14:59.898Z,9.30
2022-12-25T09:17:26.631Z,9.50
2022-12-25T09:19:53.352Z,9.50
2022-12-25T09:22:20.087Z,9.60
2022-12-25T09:24:46.960Z,9.60
2022-12-25T09:27:13.762Z,9.60
2022-12-25T09:29:40.458Z,9.70
2022-12-25T09:32:07.152Z,9.80
2022-12-25T09:34:33.864Z,9.70
2022-12-25T09:37:00.517Z,10.00
2022-12-25T09:39:27.275Z,10.10
2022-12-25T09:41:53.931Z,10.10
2022-12-25T09:44:20.576Z,10.30
2022-12-25T09:46:47.335Z,10.50
2022-12-25T09:49:14.165Z,10.80
2022-12-25T09:51:40.823Z,10.50
2022-12-25T09:54:07.534Z,10.70
2022-12-25T09:56:34.171Z,10.80
2022-12-25T09:59:01.031Z,10.80
2022-12-25T10:01:27.821Z,10.90
2022-12-25T10:03:54.604Z,11.20
2022-12-25T10:06:21.296Z,11.40
2022-12-25T10:08:47.962Z,11.50
2022-12-25T10:11:14.582Z,11.70
2022-12-25T10:13:41.243Z,11.90
2022-12-25T10:16:08.047Z,11.90
2022-12-25T10:18:34.844Z,11.90
2022-12-25T10:21:01.541Z,12.00
2022-12-25T10:23:28.227Z,12.30
2022-12-25T10:25:54.904Z,12.50
2022-12-25T10:28:21.551Z,12.70
2022-12-25T10:30:48.319Z,12.70
2022-12-25T10:33:17.085Z,12.60
2022-12-25T10:35:44.194Z,12.90
2022-12-25T10:38:10.904Z,13.00
2022-12-25T10:40:37.589Z,13.10
2022-12-25T10:43:04.245Z,13.00
2022-12-25T10:45:30.920Z,13.30
2022-12-25T10:48:05.012Z,12.90
2022-12-25T10:50:33.673Z,13.00
2022-12-25T10:53:00.346Z,12.80
2022-12-25T10:55:29.524Z,13.10
2022-12-25T10:57:56.572Z,13.40
2022-12-25T11:00:23.277Z,13.50
2022-12-25T11:02:50.126Z,13.80
2022-12-25T11:05:16.951Z,14.20
2022-12-25T11:07:43.671Z,14.40
2022-12-25T11:10:10.364Z,14.40
2022-12-25T11:12:36.999Z,14.50
2022-12-25T11:15:03.728Z,14.00
2022-12-25T11:17:30.423Z,14.00
2022-12-25T11:19:57.118Z,14.00
2022-12-25T11:22:23.796Z,14.30
2022-12-25T11:24:50.471Z,14.40
2022-12-25T11:27:17.209Z,14.70
2022-12-25T11:29:43.907Z,14.90
2022-12-25T11:32:10.665Z,15.10
2022-12-25T11:34:37.335Z,15.20
2022-12-25T11:37:04.021Z,15.10
2022-12-25T11:39:30.732Z,15.20
2022-12-25T11:41:57.460Z,15.30
2022-12-25T11:44:24.134Z,15.50
2022-12-25T11:46:50.846Z,15.30
2022-12-25T11:49:17.537Z,15.70
2022-12-25T11:51:44.228Z,15.70
2022-12-25T11:54:10.907Z,15.50
2022-12-25T11:56:37.575Z,15.40
2022-12-25T11:59:04.265Z,15.70
2022-12-25T12:01:31.005Z,15.60
2022-12-25T12:03:57.758Z,15.60
2022-12-25T12:06:24.453Z,15.70
2022-12-25T12:08:51.258Z,15.50
2022-12-25T12:11:17.985Z,15.10
2022-12-25T12:13:44.735Z,15.20
2022-12-25T12:16:11.512Z,15.30
2022-12-25T12:18:38.241Z,15.50
2022-12-25T12:21:04.874Z,15.70
2022-12-25T12:23:31.500Z,15.40
2022-12-25T12:25:58.162Z,15.40
2022-12-25T12:28:24.841Z,14.90
2022-12-25T12:30:51.550Z,14.80
2022-12-25T12:33:18.197Z,15.00
2022-12-25T12:35:44.905Z,15.10
2022-12-25T12:38:11.593Z,15.60
2022-12-25T12:40:38.473Z,15.80
2022-12-25T12:43:05.110Z,16.00
2022-12-25T12:45:31.846Z,16.00
2022-12-25T12:47:58.611Z,16.00
2022-12-25T12:50:25.316Z,16.10
2022-12-25T12:52:51.989Z,16.10
2022-12-25T12:55:18.638Z,15.90
2022-12-25T12:57:45.366Z,15.50
2022-12-25T13:00:12.110Z,15.70
2022-12-25T13:02:38.880Z,15.80
2022-12-25T13:05:05.713Z,15.90
2022-12-25T13:07:32.422Z,15.90
2022-12-25T13:09:59.130Z,15.80
2022-12-25T13:12:25.853Z,15.80
2022-12-25T13:14:52.542Z,15.70
2022-12-25T13:17:19.195Z,15.40
2022-12-25T13:19:45.848Z,15.20
2022-12-25T13:22:12.536Z,15.00
2022-12-25T13:24:39.269Z,15.00
2022-12-25T13:27:05.952Z,14.90
2022-12-25T13:29:32.657Z,14.70
2022-12-25T13:31:59.377Z,14.80
2022-12-25T13:34:26.047Z,14.90
2022-12-25T13:36:52.725Z,15.00
2022-12-25T13:39:19.467Z,15.20
2022-12-25T13:41:46.141Z,15.30
2022-12-25T13:44:12.776Z,14.90
2022-12-25T13:46:39.439Z,14.90
2022-12-25T13:49:06.166Z,14.50
2022-12-25T13:51:32.826Z,14.10
2022-12-25T13:53:59.591Z,14.20
2022-12-25T13:56:26.235Z,13.70
2022-12-25T13:58:52.957Z,13.60
2022-12-25T14:01:19.814Z,13.50
2022-12-25T14:03:46.547Z,13.50
2022-12-25T14:06:13.263Z,13.40
2022-12-25T14:08:39.931Z,13.10
2022-12-25T14:11:06.584Z,13.00
2022-12-25T14:13:33.214Z,13.00
2022-12-25T14:15:59.854Z,13.20
2022-12-25T14:18:26.541Z,13.30
2022-12-25T14:20:53.186Z,13.10
2022-12-25T14:23:19.903Z,13.10
2022-12-25T14:25:46.584Z,13.30
2022-12-25T14:28:13.300Z,13.40
2022-12-25T14:30:40.020Z,13.20
2022-12-25T14:33:06.685Z,13.30
2022-12-25T14:35:33.387Z,13.40
2022-12-25T14:38:00.379Z,13.50
2022-12-25T14:40:27.213Z,13.60
2022-12-25T14:42:53.877Z,13.50
2022-12-25T14:45:20.499Z,13.60
2022-12-25T14:47:47.171Z,13.40
2022-12-25T14:50:13.904Z,13.40
2022-12-25T14:52:40.533Z,13.40
2022-12-25T14:55:07.167Z,13.40
2022-12-25T14:57:33.835Z,13.20
2022-12-25T15:00:00.566Z,12.70
2022-12-25T15:02:27.353Z,12.30
2022-12-25T15:04:54.088Z,12.50
2022-12-25T15:07:21.176Z,12.70
2022-12-25T15:09:47.873Z,12.70
2022-12-25T15:12:14.564Z,12.60
2022-12-25T15:14:41.263Z,12.60
2022-12-25T15:17:07.905Z,12.50
2022-12-25T15:19:37.813Z,12.40
2022-12-25T15:22:05.219Z,12.20
2022-12-25T15:24:31.944Z,12.10
2022-12-25T15:26:58.592Z,12.00
2022-12-25T15:29:59.684Z,11.80
2022-12-25T15:32:12.104Z,11.70
2022-12-25T15:34:38.752Z,11.60
2022-12-25T15:37:05.454Z,11.50
2022-12-25T15:39:32.103Z,11.40
2022-12-25T15:41:58.775Z,11.20
2022-12-25T15:44:25.449Z,11.00
2022-12-25T15:46:52.186Z,10.60
2022-12-25T15:49:18.945Z,10.30
2022-12-25T15:51:45.733Z,10.60
2022-12-25T15:54:12.447Z,10.80
2022-12-25T15:56:39.058Z,10.90
2022-12-25T15:59:05.702Z,10.90
2022-12-25T16:01:32.475Z,10.80
2022-12-25T16:03:59.247Z,10.60
2022-12-25T16:06:25.922Z,9.80
2022-12-25T16:08:52.646Z,10.00
2022-12-25T16:11:19.310Z,10.10
2022-12-25T16:13:45.996Z,10.00
2022-12-25T16:16:12.744Z,9.60
2022-12-25T16:18:46.751Z,9.60
2022-12-25T16:21:13.990Z,9.70
2022-12-25T16:23:40.722Z,9.80
2022-12-25T16:26:07.395Z,9.90
2022-12-25T16:28:34.102Z,9.60
2022-12-25T16:31:00.807Z,9.60
2022-12-25T16:33:27.498Z,9.40
2022-12-25T16:35:54.221Z,8.50
2022-12-25T16:38:20.861Z,8.80
2022-12-25T16:40:47.510Z,9.00
2022-12-25T16:43:18.870Z,8.60
2022-12-25T16:45:48.661Z,8.30
2022-12-25T16:48:15.308Z,8.40
2022-12-25T16:50:42.038Z,8.60
2022-12-25T16:53:08.699Z,8.90
2022-12-25T16:55:35.413Z,8.20
2022-12-25T16:58:02.176Z,8.40
2022-12-25T17:00:28.901Z,8.60
2022-12-25T17:02:55.740Z,8.00
2022-12-25T17:05:22.634Z,7.90
2022-12-25T17:07:49.575Z,8.30
2022-12-25T17:10:16.294Z,8.40
2022-12-25T17:12:42.980Z,8.70
2022-12-25T17:15:09.673Z,8.80
2022-12-25T17:17:36.313Z,8.70
2022-12-25T17:20:03.031Z,8.20
2022-12-25T17:22:29.841Z,8.20
2022-12-25T17:24:57.968Z,7.80
2022-12-25T17:27:24.615Z,7.80
2022-12-25T17:29:51.273Z,8.00
2022-12-25T17:32:17.975Z,8.20
2022-12-25T17:34:44.664Z,8.30
2022-12-25T17:37:11.336Z,8.40
2022-12-25T17:39:38.033Z,8.40
2022-12-25T17:42:04.696Z,8.30
2022-12-25T17:44:31.470Z,7.80
2022-12-25T17:46:58.182Z,7.80
2022-12-25T17:49:24.885Z,7.70
2022-12-25T17:51:51.626Z,7.90
2022-12-25T17:54:18.377Z,7.90
2022-12-25T17:56:45.025Z,7.70
2022-12-25T17:59:11.646Z,7.70
2022-12-25T18:01:38.417Z,7.70
2022-12-25T18:04:05.309Z,7.90
2022-12-25T18:06:32.067Z,7.80
2022-12-25T18:08:58.804Z,7.70
2022-12-25T18:11:25.568Z,7.80
2022-12-25T18:13:52.352Z,7.30
2022-12-25T18:16:19.131Z,7.20
2022-12-25T18:18:51.880Z,7.30
2022-12-25T18:21:18.762Z,7.10
2022-12-25T18:23:45.450Z,6.70
2022-12-25T18:26:12.092Z,6.80
2022-12-25T18:28:38.789Z,7.10
2022-12-25T18:31:05.527Z,7.40
2022-12-25T18:33:32.544Z,7.40
2022-12-25T18:35:59.231Z,7.40
2022-12-25T18:38:26.960Z,7.40
2022-12-25T18:40:53.634Z,7.40
2022-12-25T18:43:20.320Z,7.40
2022-12-25T18:45:47.034Z,7.40
2022-12-25T18:48:13.767Z,7.10
2022-12-25T18:50:40.426Z,7.10
2022-12-25T18:53:07.096Z,7.20
2022-12-25T18:55:33.822Z,7.00
2022-12-25T18:58:00.556Z,6.70
2022-12-25T19:00:27.227Z,6.40
2022-12-25T19:02:54.230Z,6.40
2022-12-25T19:05:21.048Z,6.30
2022-12-25T19:07:47.802Z,6.40
2022-12-25T19:10:14.473Z,6.70
2022-12-25T19:12:41.106Z,6.70
2022-12-25T19:15:07.760Z,6.70
2022-12-25T19:17:34.587Z,6.50
2022-12-25T19:20:01.267Z,6.50
2022-12-25T19:22:27.967Z,6.50
2022-12-25T19:24:54.679Z,6.10
2022-12-25T19:27:21.380Z,5.90
2022-12-25T19:29:48.061Z,6.10
2022-12-25T19:32:14.950Z,6.10
2022-12-25T19:34:41.646Z,6.20
2022-12-25T19:37:08.359Z,6.30
2022-12-25T19:39:35.066Z,6.20
2022-12-25T19:42:01.789Z,6.20
2022-12-25T19:44:28.508Z,5.40
2022-12-25T19:46:55.237Z,5.70
2022-12-25T19:49:21.948Z,5.80
2022-12-25T19:51:48.590Z,5.60
2022-12-25T19:54:15.266Z,5.80
2022-12-25T19:56:42.027Z,6.00
2022-12-25T19:59:08.811Z,6.00
2022-12-25T20:01:35.598Z,6.10
2022-12-25T20:04:02.428Z,5.50
2022-12-25T20:06:29.161Z,5.50
2022-12-25T20:08:55.824Z,5.70
2022-12-25T20:11:22.459Z,5.50
2022-12-25T20:13:49.126Z,5.50
2022-12-25T20:16:15.910Z,5.50
2022-12-25T20:18:42.566Z,5.80
2022-12-25T20:21:09.237Z,5.90
2022-12-25T20:23:35.995Z,5.90
2022-12-25T20:26:02.651Z,5.90
2022-12-25T20:28:29.302Z,6.00
2022-12-25T20:30:55.980Z,6.00
2022-12-25T20:33:22.671Z,6.10
2022-12-25T20:35:49.373Z,5.60
2022-12-25T20:38:16.304Z,5.20
2022-12-25T20:41:24.447Z,5.40
2022-12-25T20:43:29.731Z,5.60
2022-12-25T20:45:56.590Z,5.60
2022-12-25T20:48:23.287Z,5.50
2022-12-25T20:50:51.886Z,5.60
2022-12-25T20:53:18.592Z,5.70
2022-12-25T20:55:45.373Z,5.40
2022-12-25T20:58:12.258Z,4.80
2022-12-25T21:00:38.922Z,5.10
2022-12-25T21:03:05.750Z,4.80
2022-12-25T21:05:32.519Z,5.00
2022-12-25T21:07:59.178Z,4.80
2022-12-25T21:10:25.890Z,5.10
2022-12-25T21:12:52.580Z,5.10
2022-12-25T21:15:19.206Z,5.30
2022-12-25T21:17:45.869Z,4.90
2022-12-25T21:20:12.506Z,5.20
2022-12-25T21:22:39.231Z,5.30
2022-12-25T21:25:06.004Z,5.40
2022-12-25T21:27:32.732Z,5.20
2022-12-25T21:29:59.407Z,5.30
2022-12-25T21:32:42.207Z,4.70
2022-12-25T21:35:08.875Z,4.80
2022-12-25T21:37:35.557Z,4.90
2022-12-25T21:40:02.293Z,4.80
2022-12-25T21:42:28.973Z,5.20
2022-12-25T21:44:55.703Z,5.40
2022-12-25T21:47:22.374Z,5.40
2022-12-25T21:49:49.041Z,5.50
2022-12-25T21:52:15.670Z,5.40
2022-12-25T21:54:42.335Z,5.20
2022-12-25T21:57:09.065Z,5.00
2022-12-25T21:59:35.802Z,4.90
2022-12-25T22:02:02.758Z,4.80
2022-12-25T22:04:29.449Z,4.80
2022-12-25T22:06:56.120Z,4.40
2022-12-25T22:09:22.795Z,4.20
2022-12-25T22:11:49.498Z,4.20
2022-12-25T22:14:16.181Z,4.60
2022-12-25T22:16:42.855Z,4.70
2022-12-25T22:19:09.538Z,4.80
2022-12-25T22:21:36.152Z,5.00
2022-12-25T22:24:02.784Z,4.90
2022-12-25T22:26:30.190Z,4.90
2022-12-25T22:28:56.828Z,4.70
2022-12-25T22:31:23.520Z,4.80
2022-12-25T22:33:50.258Z,4.90
2022-12-25T22:36:16.963Z,4.60
2022-12-25T22:38:43.643Z,4.30
2022-12-25T22:41:10.297Z,4.40
2022-12-25T22:44:15.359Z,4.40
2022-12-25T22:46:24.035Z,4.30
2022-12-25T22:48:50.776Z,4.30
2022-12-25T22:51:17.451Z,4.40
2022-12-25T22:53:44.090Z,4.70
2022-12-25T22:56:10.884Z,4.70
2022-12-25T22:58:37.544Z,4.50
2022-12-25T23:01:04.286Z,4.10
2022-12-25T23:03:31.120Z,4.10
2022-12-25T23:05:57.942Z,4.30
2022-12-25T23:08:24.623Z,4.40
2022-12-25T23:10:51.339Z,4.20
2022-12-25T23:13:18.067Z,4.00
2022-12-25T23:15:44.820Z,4.30
2022-12-25T23:18:11.457Z,4.40
2022-12-25T23:20:38.121Z,4.50
2022-12-25T23:23:04.797Z,4.60
2022-12-25T23:25:31.439Z,4.80
2022-12-25T23:27:58.133Z,4.90
2022-12-25T23:30:24.823Z,4.80
2022-12-25T23:32:51.539Z,5.00
2022-12-25T23:35:18.261Z,4.90
2022-12-25T23:37:44.920Z,4.90
2022-12-25T23:40:11.597Z,4.20
2022-12-25T23:42:38.355Z,4.30
2022-12-25T23:45:05.022Z,4.60
2022-12-25T23:47:31.714Z,4.70
2022-12-25T23:49:58.422Z,4.90
2022-12-25T23:52:25.130Z,4.80
2022-12-25T23:54:51.801Z,4.90
2022-12-25T23:57:18.463Z,4.80
2022-12-25T23:59:45.105Z,4.60
